< < Back
Terminal Aerodrome Forecast


Current Version              Previous Versions:   1  2  3  4  5  6  7  8  9  

Terminal Aerodrome Forecast

037
FTUS44 KBMX 201100
TAFMGM
TAF
KMGM 201120Z 2012/2112 VRB03KT P6SM SKC=



Latest METAR

025
SAUS80 KWBC 210700 RRC
MTRMGM
METAR KMGM 210653Z 00000KT 10SM CLR 11/09 A3001 RMK AO2 SLP162
T01060094


USA.gov is the U.S. government's official web portal to all federal, state and local government web resources and services.